sensor_id;sensor_type;location;lat;lon;timestamp;pressure;altitude;pressure_sealevel;temperature;humidity
1776;BME280;885;42.626;23.200;2022-08-20T00:00:42;133185.44;;;20.51;80.06
1776;BME280;885;42.626;23.200;2022-08-20T00:03:13;133176.84;;;20.47;79.91
1776;BME280;885;42.626;23.200;2022-08-20T00:05:44;132778.28;;;20.35;80.73
1776;BME280;885;42.626;23.200;2022-08-20T00:08:11;133155.41;;;20.37;80.96
1776;BME280;885;42.626;23.200;2022-08-20T00:10:41;132768.66;;;20.31;81.27
1776;BME280;885;42.626;23.200;2022-08-20T00:13:11;133140.34;;;20.30;82.08
1776;BME280;885;42.626;23.200;2022-08-20T00:15:40;132741.88;;;20.18;82.76
1776;BME280;885;42.626;23.200;2022-08-20T00:18:07;131582.50;;;20.00;80.67
1776;BME280;885;42.626;23.200;2022-08-20T00:20:38;132361.69;;;20.15;81.16
1776;BME280;885;42.626;23.200;2022-08-20T00:23:06;132754.75;;;20.24;80.93
1776;BME280;885;42.626;23.200;2022-08-20T00:25:34;132769.72;;;20.31;80.55
1776;BME280;885;42.626;23.200;2022-08-20T00:28:01;132761.16;;;20.27;80.84
1776;BME280;885;42.626;23.200;2022-08-20T00:30:29;132361.69;;;20.15;81.36
1776;BME280;885;42.626;23.200;2022-08-20T00:33:02;132361.69;;;20.15;81.74
1776;BME280;885;42.626;23.200;2022-08-20T00:35:32;131960.34;;;20.02;81.70
1776;BME280;885;42.626;23.200;2022-08-20T00:37:59;131944.38;;;19.95;82.74
1776;BME280;885;42.626;23.200;2022-08-20T00:40:29;132330.75;;;20.01;82.37
1776;BME280;885;42.626;23.200;2022-08-20T00:42:59;132337.16;;;20.04;81.87
1776;BME280;885;42.626;23.200;2022-08-20T00:45:28;131961.38;;;20.03;81.53
1776;BME280;885;42.626;23.200;2022-08-20T00:47:55;131957.13;;;20.01;81.63
1776;BME280;885;42.626;23.200;2022-08-20T00:50:30;132348.88;;;20.09;81.39
1776;BME280;885;42.626;23.200;2022-08-20T00:53:01;132336.09;;;20.03;81.77
1776;BME280;885;42.626;23.200;2022-08-20T00:55:29;131939.06;;;19.92;82.10
1776;BME280;885;42.626;23.200;2022-08-20T00:57:59;132317.97;;;19.95;82.56
1776;BME280;885;42.626;23.200;2022-08-20T01:00:35;132327.56;;;19.99;82.18
1776;BME280;885;42.626;23.200;2022-08-20T01:03:04;132336.09;;;20.03;82.11
1776;BME280;885;42.626;23.200;2022-08-20T01:05:34;132319.03;;;19.95;82.51
1776;BME280;885;42.626;23.200;2022-08-20T01:08:02;132311.59;;;19.92;82.56
1776;BME280;885;42.626;23.200;2022-08-20T01:10:32;131930.56;;;19.88;82.71
1776;BME280;885;42.626;23.200;2022-08-20T01:13:03;131906.13;;;19.76;83.50
1776;BME280;885;42.626;23.200;2022-08-20T01:15:32;131515.72;;;19.68;83.43
1776;BME280;885;42.626;23.200;2022-08-20T01:18:00;131892.28;;;19.70;83.98
1776;BME280;885;42.626;23.200;2022-08-20T01:20:32;131504.03;;;19.63;84.30
1776;BME280;885;42.626;23.200;2022-08-20T01:23:09;131480.75;;;19.52;85.12
1776;BME280;885;42.626;23.200;2022-08-20T01:25:59;131470.16;;;19.47;86.15
1776;BME280;885;42.626;23.200;2022-08-20T01:28:34;132240.16;;;19.58;86.56
1776;BME280;885;42.626;23.200;2022-08-20T01:31:03;132614.63;;;19.58;87.69
1776;BME280;885;42.626;23.200;2022-08-20T01:33:30;133364.72;;;19.60;88.29
1776;BME280;885;42.626;23.200;2022-08-20T01:35:57;133377.63;;;19.66;87.52
1776;BME280;885;42.626;23.200;2022-08-20T01:38:25;133387.31;;;19.70;86.73
1776;BME280;885;42.626;23.200;2022-08-20T01:41:27;133766.28;;;19.73;87.03
1776;BME280;885;42.626;23.200;2022-08-20T01:43:56;133759.81;;;19.70;87.70
1776;BME280;885;42.626;23.200;2022-08-20T01:46:26;132566.50;;;19.36;89.25
1776;BME280;885;42.626;23.200;2022-08-20T01:48:54;131740.28;;;18.98;91.01
1776;BME280;885;42.626;23.200;2022-08-20T01:51:25;132153.75;;;19.17;89.95
1776;BME280;885;42.626;23.200;2022-08-20T01:53:55;132533.34;;;19.20;89.70
1776;BME280;885;42.626;23.200;2022-08-20T01:56:27;132549.34;;;19.28;89.05
1776;BME280;885;42.626;23.200;2022-08-20T01:58:57;132939.78;;;19.36;88.94
1776;BME280;885;42.626;23.200;2022-08-20T02:01:27;133324.94;;;19.41;88.80
1776;BME280;885;42.626;23.200;2022-08-20T02:03:55;133715.59;;;19.49;88.66
1776;BME280;885;42.626;23.200;2022-08-20T02:06:24;133711.28;;;19.47;89.27
1776;BME280;885;42.626;23.200;2022-08-20T02:08:53;133711.28;;;19.47;89.13
1776;BME280;885;42.626;23.200;2022-08-20T02:11:21;134092.28;;;19.51;89.96
1776;BME280;885;42.626;23.200;2022-08-20T02:13:51;134083.66;;;19.47;89.74
1776;BME280;885;42.626;23.200;2022-08-20T02:16:20;134451.72;;;19.44;90.70
1776;BME280;885;42.626;23.200;2022-08-20T02:18:51;134845.91;;;19.54;91.05
1776;BME280;885;42.626;23.200;2022-08-20T02:21:25;134811.06;;;19.38;92.13
1776;BME280;885;42.626;23.200;2022-08-20T02:23:52;135204.22;;;19.47;91.38
1776;BME280;885;42.626;23.200;2022-08-20T02:26:20;135590.94;;;19.53;91.88
1776;BME280;885;42.626;23.200;2022-08-20T02:28:47;134813.28;;;19.39;91.55
1776;BME280;885;42.626;23.200;2022-08-20T02:31:17;134434.34;;;19.36;90.66
1776;BME280;885;42.626;23.200;2022-08-20T02:33:45;134444.13;;;19.41;90.24
1776;BME280;885;42.626;23.200;2022-08-20T02:36:13;134455.00;;;19.46;89.48
1776;BME280;885;42.626;23.200;2022-08-20T02:38:43;134058.78;;;19.35;89.18
1776;BME280;885;42.626;23.200;2022-08-20T02:41:10;134042.50;;;19.28;90.24
1776;BME280;885;42.626;23.200;2022-08-20T02:43:37;134029.53;;;19.22;90.60
1776;BME280;885;42.626;23.200;2022-08-20T02:46:05;133251.78;;;19.07;90.31
1776;BME280;885;42.626;23.200;2022-08-20T02:48:33;133633.59;;;19.11;90.40
1776;BME280;885;42.626;23.200;2022-08-20T02:51:03;133252.88;;;19.08;90.14
1776;BME280;885;42.626;23.200;2022-08-20T02:53:35;133623.88;;;19.07;90.97
1776;BME280;885;42.626;23.200;2022-08-20T02:56:03;133617.44;;;19.03;91.40
1776;BME280;885;42.626;23.200;2022-08-20T02:58:30;133248.56;;;19.06;90.42
1776;BME280;885;42.626;23.200;2022-08-20T03:00:58;133247.50;;;19.05;90.35
1776;BME280;885;42.626;23.200;2022-08-20T03:03:25;133616.34;;;19.03;91.38
1776;BME280;885;42.626;23.200;2022-08-20T03:05:55;134382.28;;;19.12;91.69
1776;BME280;885;42.626;23.200;2022-08-20T03:08:24;134385.53;;;19.14;91.57
1776;BME280;885;42.626;23.200;2022-08-20T03:10:51;134012.25;;;19.14;90.63
1776;BME280;885;42.626;23.200;2022-08-20T03:13:19;134025.22;;;19.20;89.26
1776;BME280;885;42.626;23.200;2022-08-20T03:15:48;134420.22;;;19.30;89.13
1776;BME280;885;42.626;23.200;2022-08-20T03:18:17;134426.75;;;19.33;89.04
1776;BME280;885;42.626;23.200;2022-08-20T03:20:45;134806.72;;;19.36;89.31
1776;BME280;885;42.626;23.200;2022-08-20T03:23:14;134420.22;;;19.30;89.31
1776;BME280;885;42.626;23.200;2022-08-20T03:25:41;134793.63;;;19.30;90.59
1776;BME280;885;42.626;23.200;2022-08-20T03:28:08;135169.28;;;19.31;91.13
1776;BME280;885;42.626;23.200;2022-08-20T03:30:35;134774.09;;;19.21;91.43
1776;BME280;885;42.626;23.200;2022-08-20T03:33:02;134755.59;;;19.12;91.36
1776;BME280;885;42.626;23.200;2022-08-20T03:35:30;134776.22;;;19.22;90.77
1776;BME280;885;42.626;23.200;2022-08-20T03:37:57;135151.84;;;19.23;90.89
1776;BME280;885;42.626;23.200;2022-08-20T03:40:29;134778.44;;;19.23;90.27
1776;BME280;885;42.626;23.200;2022-08-20T03:42:57;135151.84;;;19.23;90.41
1776;BME280;885;42.626;23.200;2022-08-20T03:45:25;134363.84;;;19.03;91.40
1776;BME280;885;42.626;23.200;2022-08-20T03:47:53;133554.91;;;18.74;93.10
1776;BME280;885;42.626;23.200;2022-08-20T03:50:22;133932.22;;;18.76;93.47
1776;BME280;885;42.626;23.200;2022-08-20T03:52:49;133932.22;;;18.76;93.60
1776;BME280;885;42.626;23.200;2022-08-20T03:55:16;134707.72;;;18.90;92.76
1776;BME280;885;42.626;23.200;2022-08-20T03:57:45;134700.13;;;18.86;93.90
1776;BME280;885;42.626;23.200;2022-08-20T04:00:15;135074.41;;;18.87;93.66
1776;BME280;885;42.626;23.200;2022-08-20T04:02:43;135079.81;;;18.89;93.34
1776;BME280;885;42.626;23.200;2022-08-20T04:05:11;135459.63;;;18.92;94.00
1776;BME280;885;42.626;23.200;2022-08-20T04:07:39;135849.38;;;19.00;93.58
1776;BME280;885;42.626;23.200;2022-08-20T04:10:08;135474.97;;;18.99;92.19
1776;BME280;885;42.626;23.200;2022-08-20T04:12:36;135494.63;;;19.09;92.15
1776;BME280;885;42.626;23.200;2022-08-20T04:15:08;136652.41;;;19.26;92.51
1776;BME280;885;42.626;23.200;2022-08-20T04:17:36;136650.22;;;19.25;92.98
1776;BME280;885;42.626;23.200;2022-08-20T04:20:04;137042.63;;;19.33;93.05
1776;BME280;885;42.626;23.200;2022-08-20T04:22:31;137431.88;;;19.40;93.05
1776;BME280;885;42.626;23.200;2022-08-20T04:24:58;137817.91;;;19.46;93.01
1776;BME280;885;42.626;23.200;2022-08-20T04:27:25;137829.00;;;19.51;92.70
1776;BME280;885;42.626;23.200;2022-08-20T04:29:52;137818.97;;;19.46;93.25
1776;BME280;885;42.626;23.200;2022-08-20T04:32:20;138182.75;;;19.42;94.25
1776;BME280;885;42.626;23.200;2022-08-20T04:34:47;138172.75;;;19.37;94.43
1776;BME280;885;42.626;23.200;2022-08-20T04:37:18;138565.56;;;19.46;94.41
1776;BME280;885;42.626;23.200;2022-08-20T04:39:45;138959.66;;;19.55;94.31
1776;BME280;885;42.626;23.200;2022-08-20T04:42:34;138957.41;;;19.54;94.92
1776;BME280;885;42.626;23.200;2022-08-20T04:45:00;139338.13;;;19.57;95.05
1776;BME280;885;42.626;23.200;2022-08-20T04:47:29;139721.19;;;19.61;95.57
1776;BME280;885;42.626;23.200;2022-08-20T04:49:55;140117.94;;;19.71;96.03
1776;BME280;885;42.626;23.200;2022-08-20T04:52:24;140487.53;;;19.69;96.40
1776;BME280;885;42.626;23.200;2022-08-20T04:54:51;140894.75;;;19.83;95.84
1776;BME280;885;42.626;23.200;2022-08-20T04:57:20;141298.78;;;19.97;95.58
1776;BME280;885;42.626;23.200;2022-08-20T04:59:47;141672.06;;;19.96;96.23
1776;BME280;885;42.626;23.200;2022-08-20T05:02:14;142061.47;;;20.03;96.20
1776;BME280;885;42.626;23.200;2022-08-20T05:04:44;142062.63;;;20.03;96.53
1776;BME280;885;42.626;23.200;2022-08-20T05:07:11;142444.13;;;20.06;96.90
1776;BME280;885;42.626;23.200;2022-08-20T05:09:38;142834.84;;;20.13;96.86
1776;BME280;885;42.626;23.200;2022-08-20T05:12:06;142434.91;;;20.02;97.04
1776;BME280;885;42.626;23.200;2022-08-20T05:14:33;142448.72;;;20.08;96.01
1776;BME280;885;42.626;23.200;2022-08-20T05:17:01;142842.97;;;20.17;96.57
1776;BME280;885;42.626;23.200;2022-08-20T05:19:29;143229.28;;;20.22;96.60
1776;BME280;885;42.626;23.200;2022-08-20T05:21:58;143624.94;;;20.31;95.75
1776;BME280;885;42.626;23.200;2022-08-20T05:24:26;143631.88;;;20.34;95.08
1776;BME280;885;42.626;23.200;2022-08-20T05:26:53;143648.16;;;20.41;95.51
1776;BME280;885;42.626;23.200;2022-08-20T05:29:20;144003.28;;;20.32;97.02
1776;BME280;885;42.626;23.200;2022-08-20T05:31:48;144386.41;;;20.36;97.54
1776;BME280;885;42.626;23.200;2022-08-20T05:34:15;145193.84;;;20.61;97.27
1776;BME280;885;42.626;23.200;2022-08-20T05:36:43;145979.66;;;20.76;97.01
1776;BME280;885;42.626;23.200;2022-08-20T05:39:13;146388.13;;;20.90;96.75
1776;BME280;885;42.626;23.200;2022-08-20T05:41:40;146388.13;;;20.90;96.98
1776;BME280;885;42.626;23.200;2022-08-20T05:44:08;147186.72;;;21.10;96.78
1776;BME280;885;42.626;23.200;2022-08-20T05:46:39;147577.88;;;21.16;96.55
1776;BME280;885;42.626;23.200;2022-08-20T05:49:07;147993.09;;;21.33;95.83
1776;BME280;885;42.626;23.200;2022-08-20T05:51:33;148408.56;;;21.50;95.36
1776;BME280;885;42.626;23.200;2022-08-20T05:54:02;148437.31;;;21.62;94.10
1776;BME280;885;42.626;23.200;2022-08-20T05:56:30;148422.94;;;21.56;94.88
1776;BME280;885;42.626;23.200;2022-08-20T05:58:59;149230.56;;;21.79;94.04
1776;BME280;885;42.626;23.200;2022-08-20T06:01:31;149233.00;;;21.80;93.48
1776;BME280;885;42.626;23.200;2022-08-20T06:03:58;149255.94;;;21.89;92.99
1776;BME280;885;42.626;23.200;2022-08-20T06:06:43;149258.38;;;21.90;93.20
1776;BME280;885;42.626;23.200;2022-08-20T06:09:10;150048.63;;;22.06;93.30
1776;BME280;885;42.626;23.200;2022-08-20T06:11:38;150075.31;;;22.17;92.69
1776;BME280;885;42.626;23.200;2022-08-20T06:14:05;150478.66;;;22.28;92.20
1776;BME280;885;42.626;23.200;2022-08-20T06:16:31;150496.88;;;22.36;91.49
1776;BME280;885;42.626;23.200;2022-08-20T06:18:58;150513.94;;;22.43;90.49
1776;BME280;885;42.626;23.200;2022-08-20T06:21:25;150535.78;;;22.52;88.53
1776;BME280;885;42.626;23.200;2022-08-20T06:23:52;150566.22;;;22.64;87.85
1776;BME280;885;42.626;23.200;2022-08-20T06:26:18;150974.84;;;22.77;87.51
1776;BME280;885;42.626;23.200;2022-08-20T06:28:47;151382.44;;;22.90;86.29
1776;BME280;885;42.626;23.200;2022-08-20T06:31:14;151438.69;;;23.13;84.57
1776;BME280;885;42.626;23.200;2022-08-20T06:33:40;152227.69;;;23.27;85.85
1776;BME280;885;42.626;23.200;2022-08-20T06:36:08;152254.81;;;23.38;85.07
1776;BME280;885;42.626;23.200;2022-08-20T06:38:34;152274.47;;;23.46;83.42
1776;BME280;885;42.626;23.200;2022-08-20T06:41:01;152279.38;;;23.48;82.21
1776;BME280;885;42.626;23.200;2022-08-20T06:43:28;152273.28;;;23.46;83.18
1776;BME280;885;42.626;23.200;2022-08-20T06:45:57;152284.28;;;23.50;83.17
1776;BME280;885;42.626;23.200;2022-08-20T06:48:24;152286.78;;;23.51;82.76
1776;BME280;885;42.626;23.200;2022-08-20T06:50:51;152676.66;;;23.56;82.79
1776;BME280;885;42.626;23.200;2022-08-20T06:53:19;152308.91;;;23.60;82.00
1776;BME280;885;42.626;23.200;2022-08-20T06:55:49;152698.88;;;23.65;82.78
1776;BME280;885;42.626;23.200;2022-08-20T06:58:17;153117.38;;;23.82;82.20
1776;BME280;885;42.626;23.200;2022-08-20T07:00:45;153934.03;;;24.07;81.86
1776;BME280;885;42.626;23.200;2022-08-20T07:03:13;154787.66;;;24.46;80.47
1776;BME280;885;42.626;23.200;2022-08-20T07:05:42;155682.66;;;25.01;77.76
1776;BME280;885;42.626;23.200;2022-08-20T07:08:10;157823.94;;;25.99;74.27
1776;BME280;885;42.626;23.200;2022-08-20T07:10:39;160007.22;;;27.10;70.31
1776;BME280;885;42.626;23.200;2022-08-20T07:13:07;161339.72;;;27.84;67.02
1776;BME280;885;42.626;23.200;2022-08-20T07:15:34;161371.00;;;27.96;66.28
1776;BME280;885;42.626;23.200;2022-08-20T07:18:03;160510.53;;;27.58;67.56
1776;BME280;885;42.626;23.200;2022-08-20T07:20:34;159257.88;;;27.15;68.17
1776;BME280;885;42.626;23.200;2022-08-20T07:23:01;158767.41;;;26.71;70.17
1776;BME280;885;42.626;23.200;2022-08-20T07:25:29;158318.38;;;26.44;71.76
1776;BME280;885;42.626;23.200;2022-08-20T07:28:02;157887.59;;;26.24;72.72
1776;BME280;885;42.626;23.200;2022-08-20T07:30:29;157487.59;;;26.16;71.63
1776;BME280;885;42.626;23.200;2022-08-20T07:33:13;157097.75;;;26.12;71.07
1776;BME280;885;42.626;23.200;2022-08-20T07:35:42;157474.88;;;26.11;72.67
1776;BME280;885;42.626;23.200;2022-08-20T07:38:14;157479.94;;;26.13;72.40
1776;BME280;885;42.626;23.200;2022-08-20T07:40:44;157469.78;;;26.09;73.50
1776;BME280;885;42.626;23.200;2022-08-20T07:43:14;157476.16;;;26.12;72.88
1776;BME280;885;42.626;23.200;2022-08-20T07:45:41;157483.72;;;26.15;71.48
1776;BME280;885;42.626;23.200;2022-08-20T07:48:11;157110.44;;;26.17;70.21
1776;BME280;885;42.626;23.200;2022-08-20T07:50:38;157119.28;;;26.21;70.39
1776;BME280;885;42.626;23.200;2022-08-20T07:53:07;156756.09;;;26.27;67.62
1776;BME280;885;42.626;23.200;2022-08-20T07:55:36;156394.13;;;26.34;65.95
1776;BME280;885;42.626;23.200;2022-08-20T07:58:10;157167.44;;;26.40;68.35
1776;BME280;885;42.626;23.200;2022-08-20T08:00:38;157197.81;;;26.52;67.23
1776;BME280;885;42.626;23.200;2022-08-20T08:03:05;157984.31;;;26.62;68.71
1776;BME280;885;42.626;23.200;2022-08-20T08:05:35;157251.06;;;26.73;64.62
1776;BME280;885;42.626;23.200;2022-08-20T08:08:09;157662.81;;;26.86;64.45
1776;BME280;885;42.626;23.200;2022-08-20T08:10:37;158073.53;;;26.98;64.93
1776;BME280;885;42.626;23.200;2022-08-20T08:13:08;157725.09;;;27.10;63.29
1776;BME280;885;42.626;23.200;2022-08-20T08:15:38;158152.47;;;27.29;63.58
1776;BME280;885;42.626;23.200;2022-08-20T08:18:20;158950.50;;;27.43;64.24
1776;BME280;885;42.626;23.200;2022-08-20T08:20:49;158987.63;;;27.58;63.61
1776;BME280;885;42.626;23.200;2022-08-20T08:23:19;159399.09;;;27.70;64.04
1776;BME280;885;42.626;23.200;2022-08-20T08:25:47;159028.59;;;27.74;61.65
1776;BME280;885;42.626;23.200;2022-08-20T08:28:17;159054.19;;;27.84;61.01
1776;BME280;885;42.626;23.200;2022-08-20T08:30:46;159476.19;;;28.00;60.56
1776;BME280;885;42.626;23.200;2022-08-20T08:33:18;159501.84;;;28.10;59.70
1776;BME280;885;42.626;23.200;2022-08-20T08:35:56;159536.47;;;28.24;59.35
1776;BME280;885;42.626;23.200;2022-08-20T08:38:25;159957.53;;;28.40;59.84
1776;BME280;885;42.626;23.200;2022-08-20T08:40:53;159983.25;;;28.50;59.08
1776;BME280;885;42.626;23.200;2022-08-20T08:43:22;160393.03;;;28.61;59.53
1776;BME280;885;42.626;23.200;2022-08-20T08:45:56;160800.31;;;28.71;59.34
1776;BME280;885;42.626;23.200;2022-08-20T08:48:32;161201.28;;;28.78;60.68
1776;BME280;885;42.626;23.200;2022-08-20T08:51:03;160828.78;;;28.82;59.15
1776;BME280;885;42.626;23.200;2022-08-20T08:53:41;160859.84;;;28.94;58.05
1776;BME280;885;42.626;23.200;2022-08-20T08:56:10;160506.59;;;29.05;54.83
1776;BME280;885;42.626;23.200;2022-08-20T08:58:39;160909.00;;;29.13;56.60
1776;BME280;885;42.626;23.200;2022-08-20T09:01:10;160942.72;;;29.26;55.44
1776;BME280;885;42.626;23.200;2022-08-20T09:03:39;160189.38;;;29.30;52.80
1776;BME280;885;42.626;23.200;2022-08-20T09:06:13;160189.38;;;29.30;52.93
1776;BME280;885;42.626;23.200;2022-08-20T09:08:45;160571.19;;;29.30;54.75
1776;BME280;885;42.626;23.200;2022-08-20T09:11:14;158980.13;;;29.05;52.25
1776;BME280;885;42.626;23.200;2022-08-20T09:13:41;159786.97;;;29.22;54.00
1776;BME280;885;42.626;23.200;2022-08-20T09:16:08;160600.88;;;29.42;54.17
1776;BME280;885;42.626;23.200;2022-08-20T09:18:35;161015.16;;;29.54;54.71
1776;BME280;885;42.626;23.200;2022-08-20T09:21:02;161460.84;;;29.79;53.99
1776;BME280;885;42.626;23.200;2022-08-20T09:23:29;161508.84;;;29.98;53.01
1776;BME280;885;42.626;23.200;2022-08-20T09:25:57;161947.16;;;30.19;53.53
1776;BME280;885;42.626;23.200;2022-08-20T09:28:24;162385.88;;;30.41;53.88
1776;BME280;885;42.626;23.200;2022-08-20T09:30:51;162807.81;;;30.56;52.08
1776;BME280;885;42.626;23.200;2022-08-20T09:33:18;162839.19;;;30.68;52.40
1776;BME280;885;42.626;23.200;2022-08-20T09:35:45;162441.94;;;30.63;50.71
1776;BME280;885;42.626;23.200;2022-08-20T09:38:12;162458.91;;;30.69;50.51
1776;BME280;885;42.626;23.200;2022-08-20T09:40:39;162451.09;;;30.66;51.24
1776;BME280;885;42.626;23.200;2022-08-20T09:43:08;162477.19;;;30.76;50.23
1776;BME280;885;42.626;23.200;2022-08-20T09:45:35;162915.09;;;30.97;49.89
1776;BME280;885;42.626;23.200;2022-08-20T09:48:02;162954.34;;;31.12;49.82
1776;BME280;885;42.626;23.200;2022-08-20T09:50:32;162988.34;;;31.25;49.28
1776;BME280;885;42.626;23.200;2022-08-20T09:53:02;163786.53;;;31.38;50.41
1776;BME280;885;42.626;23.200;2022-08-20T09:55:32;161232.78;;;30.39;49.56
1776;BME280;885;42.626;23.200;2022-08-20T09:58:04;161669.88;;;30.60;49.83
1776;BME280;885;42.626;23.200;2022-08-20T10:00:33;162928.16;;;31.02;51.31
1776;BME280;885;42.626;23.200;2022-08-20T10:03:00;162128.19;;;30.89;49.60
1776;BME280;885;42.626;23.200;2022-08-20T10:05:28;163345.41;;;31.15;51.92
1776;BME280;885;42.626;23.200;2022-08-20T10:07:56;163802.34;;;31.44;51.12
1776;BME280;885;42.626;23.200;2022-08-20T10:10:22;163849.66;;;31.62;50.40
1776;BME280;885;42.626;23.200;2022-08-20T10:12:49;163889.13;;;31.77;48.20
1776;BME280;885;42.626;23.200;2022-08-20T10:15:16;163108.75;;;31.72;46.39
1776;BME280;885;42.626;23.200;2022-08-20T10:17:44;161421.91;;;31.12;46.12
1776;BME280;885;42.626;23.200;2022-08-20T10:20:12;162234.91;;;31.30;47.49
1776;BME280;885;42.626;23.200;2022-08-20T10:22:39;163103.53;;;31.70;47.28
1776;BME280;885;42.626;23.200;2022-08-20T10:25:06;163534.34;;;31.88;46.99
1776;BME280;885;42.626;23.200;2022-08-20T10:27:33;163581.63;;;32.06;45.61
1776;BME280;885;42.626;23.200;2022-08-20T10:30:00;162807.53;;;32.03;44.84
1776;BME280;885;42.626;23.200;2022-08-20T10:32:27;162837.59;;;32.15;43.72
1776;BME280;885;42.626;23.200;2022-08-20T10:34:55;161958.25;;;31.72;44.52
1776;BME280;885;42.626;23.200;2022-08-20T10:37:23;162804.94;;;32.02;44.97
1776;BME280;885;42.626;23.200;2022-08-20T10:39:50;162842.81;;;32.17;45.10
1776;BME280;885;42.626;23.200;2022-08-20T10:42:17;162019.38;;;31.95;43.99
1776;BME280;885;42.626;23.200;2022-08-20T10:44:45;162848.03;;;32.19;43.94
1776;BME280;885;42.626;23.200;2022-08-20T10:47:16;163318.31;;;32.52;43.74
1776;BME280;885;42.626;23.200;2022-08-20T10:49:43;163773.25;;;32.79;43.46
1776;BME280;885;42.626;23.200;2022-08-20T10:52:12;164220.75;;;33.04;43.25
1776;BME280;885;42.626;23.200;2022-08-20T10:54:39;164663.28;;;33.26;42.88
1776;BME280;885;42.626;23.200;2022-08-20T10:57:07;164722.66;;;33.48;41.80
1776;BME280;885;42.626;23.200;2022-08-20T10:59:37;165128.66;;;33.56;42.45
1776;BME280;885;42.626;23.200;2022-08-20T11:02:05;165559.97;;;33.74;42.84
1776;BME280;885;42.626;23.200;2022-08-20T11:04:32;164323.44;;;33.43;41.75
1776;BME280;885;42.626;23.200;2022-08-20T11:07:15;164714.72;;;33.45;42.06
1776;BME280;885;42.626;23.200;2022-08-20T11:09:44;164316.84;;;33.40;42.03
1776;BME280;885;42.626;23.200;2022-08-20T11:12:12;164737.22;;;33.54;42.11
1776;BME280;885;42.626;23.200;2022-08-20T11:14:39;164758.31;;;33.62;42.41
1776;BME280;885;42.626;23.200;2022-08-20T11:17:06;164315.50;;;33.40;42.27
1776;BME280;885;42.626;23.200;2022-08-20T11:19:38;164289.19;;;33.30;43.03
1776;BME280;885;42.626;23.200;2022-08-20T11:22:05;163454.53;;;33.05;42.61
1776;BME280;885;42.626;23.200;2022-08-20T11:24:33;163434.81;;;32.97;42.89
1776;BME280;885;42.626;23.200;2022-08-20T11:27:00;163030.91;;;32.89;43.67
1776;BME280;885;42.626;23.200;2022-08-20T11:29:27;162986.47;;;32.72;44.30
1776;BME280;885;42.626;23.200;2022-08-20T11:31:54;162965.59;;;32.64;44.42
1776;BME280;885;42.626;23.200;2022-08-20T11:34:21;163351.03;;;32.65;45.41
1776;BME280;885;42.626;23.200;2022-08-20T11:36:48;162555.47;;;32.54;44.28
1776;BME280;885;42.626;23.200;2022-08-20T11:39:15;160872.59;;;31.97;43.00
1776;BME280;885;42.626;23.200;2022-08-20T11:41:43;160420.88;;;31.70;44.86
1776;BME280;885;42.626;23.200;2022-08-20T11:44:10;160370.72;;;31.51;45.67
1776;BME280;885;42.626;23.200;2022-08-20T11:46:37;158285.03;;;30.83;44.82
1776;BME280;885;42.626;23.200;2022-08-20T11:49:03;158246.94;;;30.68;46.48
1776;BME280;885;42.626;23.200;2022-08-20T11:51:30;157849.28;;;30.62;45.84
1776;BME280;885;42.626;23.200;2022-08-20T11:53:57;158976.25;;;30.54;50.51
1776;BME280;885;42.626;23.200;2022-08-20T11:56:24;159755.31;;;30.59;52.97
1776;BME280;885;42.626;23.200;2022-08-20T11:58:53;161193.88;;;30.24;60.87
1776;BME280;885;42.626;23.200;2022-08-20T12:01:19;157909.25;;;29.34;57.43
1776;BME280;885;42.626;23.200;2022-08-20T12:03:46;158247.66;;;29.17;60.17
1776;BME280;885;42.626;23.200;2022-08-20T12:06:13;157868.63;;;29.18;58.09
1776;BME280;885;42.626;23.200;2022-08-20T12:08:40;158618.97;;;29.13;61.25
1776;BME280;885;42.626;23.200;2022-08-20T12:11:07;158611.31;;;29.10;61.31
1776;BME280;885;42.626;23.200;2022-08-20T12:13:35;159341.16;;;28.97;65.45
1776;BME280;885;42.626;23.200;2022-08-20T12:16:04;159330.91;;;28.93;66.43
1776;BME280;885;42.626;23.200;2022-08-20T12:18:31;159292.50;;;28.78;66.33
1776;BME280;885;42.626;23.200;2022-08-20T12:20:58;158888.09;;;28.69;65.77
1776;BME280;885;42.626;23.200;2022-08-20T12:23:25;159284.81;;;28.75;67.47
1776;BME280;885;42.626;23.200;2022-08-20T12:25:54;160059.25;;;28.79;69.52
1776;BME280;885;42.626;23.200;2022-08-20T12:28:22;160055.41;;;28.78;70.07
1776;BME280;885;42.626;23.200;2022-08-20T12:30:48;160006.50;;;28.59;70.82
1776;BME280;885;42.626;23.200;2022-08-20T12:33:16;159639.25;;;28.64;67.77
1776;BME280;885;42.626;23.200;2022-08-20T12:35:43;159636.72;;;28.63;69.36
1776;BME280;885;42.626;23.200;2022-08-20T12:38:10;159623.84;;;28.58;68.80
1776;BME280;885;42.626;23.200;2022-08-20T12:40:37;159610.94;;;28.53;68.45
1776;BME280;885;42.626;23.200;2022-08-20T12:43:04;159202.75;;;28.43;68.33
1776;BME280;885;42.626;23.200;2022-08-20T12:45:31;158807.56;;;28.37;67.38
1776;BME280;885;42.626;23.200;2022-08-20T12:48:03;159589.09;;;28.45;69.00
1776;BME280;885;42.626;23.200;2022-08-20T12:50:34;160713.59;;;28.37;75.43
1776;BME280;885;42.626;23.200;2022-08-20T12:53:02;160281.97;;;28.17;74.63
1776;BME280;885;42.626;23.200;2022-08-20T12:55:30;160332.31;;;28.37;72.50
1776;BME280;885;42.626;23.200;2022-08-20T12:57:59;160431.75;;;28.76;68.07
1776;BME280;885;42.626;23.200;2022-08-20T13:00:28;161246.69;;;28.96;69.40
1776;BME280;885;42.626;23.200;2022-08-20T13:02:56;159315.53;;;28.87;63.12
1776;BME280;885;42.626;23.200;2022-08-20T13:05:24;159595.53;;;28.47;68.52
1776;BME280;885;42.626;23.200;2022-08-20T13:07:52;159164.38;;;28.27;69.52
1776;BME280;885;42.626;23.200;2022-08-20T13:10:22;157990.72;;;28.15;64.39
1776;BME280;885;42.626;23.200;2022-08-20T13:12:49;158386.97;;;28.21;65.35
1776;BME280;885;42.626;23.200;2022-08-20T13:15:17;158803.72;;;28.36;66.60
1776;BME280;885;42.626;23.200;2022-08-20T13:17:44;158467.22;;;28.53;62.24